sensor_id;sensor_type;location;lat;lon;timestamp;P1;durP1;ratioP1;P2;durP2;ratioP2
82296;SDS011;71899;51.992;8.648;2023-11-21T00:02:21;135.38;;;29.80;;
82296;SDS011;71899;51.992;8.648;2023-11-21T00:04:48;142.85;;;30.63;;
82296;SDS011;71899;51.992;8.648;2023-11-21T00:07:14;124.78;;;28.02;;
82296;SDS011;71899;51.992;8.648;2023-11-21T00:09:40;125.95;;;26.95;;
82296;SDS011;71899;51.992;8.648;2023-11-21T00:12:06;119.80;;;26.17;;
82296;SDS011;71899;51.992;8.648;2023-11-21T00:14:35;107.55;;;24.00;;
82296;SDS011;71899;51.992;8.648;2023-11-21T00:17:03;107.18;;;24.70;;
82296;SDS011;71899;51.992;8.648;2023-11-21T00:19:30;97.32;;;23.90;;
82296;SDS011;71899;51.992;8.648;2023-11-21T00:21:56;100.60;;;23.63;;
82296;SDS011;71899;51.992;8.648;2023-11-21T00:24:23;107.72;;;26.35;;
82296;SDS011;71899;51.992;8.648;2023-11-21T00:26:50;111.00;;;24.60;;
82296;SDS011;71899;51.992;8.648;2023-11-21T00:29:17;116.70;;;25.88;;
82296;SDS011;71899;51.992;8.648;2023-11-21T00:31:44;108.45;;;25.17;;
82296;SDS011;71899;51.992;8.648;2023-11-21T00:34:11;124.28;;;28.85;;
82296;SDS011;71899;51.992;8.648;2023-11-21T00:36:37;130.77;;;27.90;;
82296;SDS011;71899;51.992;8.648;2023-11-21T00:39:03;123.78;;;26.33;;
82296;SDS011;71899;51.992;8.648;2023-11-21T00:41:30;113.10;;;26.23;;
82296;SDS011;71899;51.992;8.648;2023-11-21T00:43:57;119.63;;;26.13;;
82296;SDS011;71899;51.992;8.648;2023-11-21T00:46:24;116.90;;;27.65;;
82296;SDS011;71899;51.992;8.648;2023-11-21T00:48:52;128.32;;;26.13;;
82296;SDS011;71899;51.992;8.648;2023-11-21T00:51:19;123.18;;;27.27;;
82296;SDS011;71899;51.992;8.648;2023-11-21T00:53:45;118.05;;;26.60;;
82296;SDS011;71899;51.992;8.648;2023-11-21T00:56:12;117.97;;;27.15;;
82296;SDS011;71899;51.992;8.648;2023-11-21T00:58:38;140.90;;;30.50;;
82296;SDS011;71899;51.992;8.648;2023-11-21T01:01:07;119.13;;;28.15;;
82296;SDS011;71899;51.992;8.648;2023-11-21T01:03:33;99.03;;;27.02;;
82296;SDS011;71899;51.992;8.648;2023-11-21T01:05:58;96.57;;;24.10;;
82296;SDS011;71899;51.992;8.648;2023-11-21T01:08:24;95.22;;;23.88;;
82296;SDS011;71899;51.992;8.648;2023-11-21T01:10:49;103.38;;;21.95;;
82296;SDS011;71899;51.992;8.648;2023-11-21T01:13:15;91.03;;;22.10;;
82296;SDS011;71899;51.992;8.648;2023-11-21T01:15:40;87.57;;;22.45;;
82296;SDS011;71899;51.992;8.648;2023-11-21T01:18:06;81.05;;;22.10;;
82296;SDS011;71899;51.992;8.648;2023-11-21T01:20:34;80.82;;;22.05;;
82296;SDS011;71899;51.992;8.648;2023-11-21T01:22:59;74.30;;;19.40;;
82296;SDS011;71899;51.992;8.648;2023-11-21T01:25:26;68.57;;;19.05;;
82296;SDS011;71899;51.992;8.648;2023-11-21T01:27:51;78.75;;;22.23;;
82296;SDS011;71899;51.992;8.648;2023-11-21T01:30:17;70.65;;;21.65;;
82296;SDS011;71899;51.992;8.648;2023-11-21T01:32:43;81.13;;;23.58;;
82296;SDS011;71899;51.992;8.648;2023-11-21T01:35:09;74.78;;;23.50;;
82296;SDS011;71899;51.992;8.648;2023-11-21T01:37:35;82.45;;;24.23;;
82296;SDS011;71899;51.992;8.648;2023-11-21T01:40:01;90.65;;;24.00;;
82296;SDS011;71899;51.992;8.648;2023-11-21T01:42:27;73.38;;;23.13;;
82296;SDS011;71899;51.992;8.648;2023-11-21T01:44:54;65.68;;;22.30;;
82296;SDS011;71899;51.992;8.648;2023-11-21T01:47:20;79.70;;;26.17;;
82296;SDS011;71899;51.992;8.648;2023-11-21T01:49:46;79.57;;;25.45;;
82296;SDS011;71899;51.992;8.648;2023-11-21T01:52:12;74.07;;;23.95;;
82296;SDS011;71899;51.992;8.648;2023-11-21T01:54:38;69.93;;;22.35;;
82296;SDS011;71899;51.992;8.648;2023-11-21T01:57:04;69.03;;;22.13;;
82296;SDS011;71899;51.992;8.648;2023-11-21T01:59:34;82.13;;;24.90;;
82296;SDS011;71899;51.992;8.648;2023-11-21T02:02:04;76.07;;;22.20;;
82296;SDS011;71899;51.992;8.648;2023-11-21T02:04:35;69.43;;;21.98;;
82296;SDS011;71899;51.992;8.648;2023-11-21T02:07:02;57.03;;;20.85;;
82296;SDS011;71899;51.992;8.648;2023-11-21T02:09:30;62.13;;;21.73;;
82296;SDS011;71899;51.992;8.648;2023-11-21T02:11:58;60.95;;;19.63;;
82296;SDS011;71899;51.992;8.648;2023-11-21T02:14:24;68.68;;;21.02;;
82296;SDS011;71899;51.992;8.648;2023-11-21T02:16:52;60.55;;;20.85;;
82296;SDS011;71899;51.992;8.648;2023-11-21T02:19:19;63.38;;;20.48;;
82296;SDS011;71899;51.992;8.648;2023-11-21T02:21:51;60.42;;;20.40;;
82296;SDS011;71899;51.992;8.648;2023-11-21T02:24:18;63.53;;;19.02;;
82296;SDS011;71899;51.992;8.648;2023-11-21T02:26:48;61.13;;;19.65;;
82296;SDS011;71899;51.992;8.648;2023-11-21T02:29:16;69.07;;;20.50;;
82296;SDS011;71899;51.992;8.648;2023-11-21T02:31:53;65.38;;;21.40;;
82296;SDS011;71899;51.992;8.648;2023-11-21T02:34:20;66.78;;;21.50;;
82296;SDS011;71899;51.992;8.648;2023-11-21T02:36:47;69.55;;;23.17;;
82296;SDS011;71899;51.992;8.648;2023-11-21T02:39:16;55.38;;;18.13;;
82296;SDS011;71899;51.992;8.648;2023-11-21T02:41:42;75.30;;;20.27;;
82296;SDS011;71899;51.992;8.648;2023-11-21T02:44:08;64.70;;;21.02;;
82296;SDS011;71899;51.992;8.648;2023-11-21T02:46:35;67.93;;;19.83;;
82296;SDS011;71899;51.992;8.648;2023-11-21T02:49:01;56.33;;;18.77;;
82296;SDS011;71899;51.992;8.648;2023-11-21T02:51:28;61.80;;;20.30;;
82296;SDS011;71899;51.992;8.648;2023-11-21T02:53:53;67.18;;;20.17;;
82296;SDS011;71899;51.992;8.648;2023-11-21T02:56:19;63.08;;;19.48;;
82296;SDS011;71899;51.992;8.648;2023-11-21T02:58:45;60.67;;;17.55;;
82296;SDS011;71899;51.992;8.648;2023-11-21T03:01:10;62.10;;;19.77;;
82296;SDS011;71899;51.992;8.648;2023-11-21T03:03:36;56.15;;;17.88;;
82296;SDS011;71899;51.992;8.648;2023-11-21T03:06:05;75.32;;;17.10;;
82296;SDS011;71899;51.992;8.648;2023-11-21T03:08:31;59.63;;;18.88;;
82296;SDS011;71899;51.992;8.648;2023-11-21T03:10:57;52.45;;;16.48;;
82296;SDS011;71899;51.992;8.648;2023-11-21T03:13:23;60.13;;;15.55;;
82296;SDS011;71899;51.992;8.648;2023-11-21T03:15:48;47.42;;;16.13;;
82296;SDS011;71899;51.992;8.648;2023-11-21T03:18:14;53.03;;;16.40;;
82296;SDS011;71899;51.992;8.648;2023-11-21T03:20:39;55.75;;;14.80;;
82296;SDS011;71899;51.992;8.648;2023-11-21T03:23:04;48.15;;;14.38;;
82296;SDS011;71899;51.992;8.648;2023-11-21T03:25:30;46.83;;;15.38;;
82296;SDS011;71899;51.992;8.648;2023-11-21T03:27:56;40.47;;;14.48;;
82296;SDS011;71899;51.992;8.648;2023-11-21T03:30:21;44.17;;;13.23;;
82296;SDS011;71899;51.992;8.648;2023-11-21T03:32:47;29.83;;;12.68;;
82296;SDS011;71899;51.992;8.648;2023-11-21T03:35:13;24.10;;;10.77;;
82296;SDS011;71899;51.992;8.648;2023-11-21T03:37:39;33.47;;;12.65;;
82296;SDS011;71899;51.992;8.648;2023-11-21T03:40:07;29.05;;;12.07;;
82296;SDS011;71899;51.992;8.648;2023-11-21T03:42:34;36.72;;;12.32;;
82296;SDS011;71899;51.992;8.648;2023-11-21T03:44:59;39.13;;;13.20;;
82296;SDS011;71899;51.992;8.648;2023-11-21T03:47:26;32.90;;;11.93;;
82296;SDS011;71899;51.992;8.648;2023-11-21T03:49:52;43.13;;;14.30;;
82296;SDS011;71899;51.992;8.648;2023-11-21T03:52:18;37.78;;;14.32;;
82296;SDS011;71899;51.992;8.648;2023-11-21T03:54:43;45.53;;;15.07;;
82296;SDS011;71899;51.992;8.648;2023-11-21T03:57:09;47.15;;;13.80;;
82296;SDS011;71899;51.992;8.648;2023-11-21T03:59:35;41.95;;;13.43;;
82296;SDS011;71899;51.992;8.648;2023-11-21T04:02:01;31.90;;;12.68;;
82296;SDS011;71899;51.992;8.648;2023-11-21T04:04:26;28.50;;;12.30;;
82296;SDS011;71899;51.992;8.648;2023-11-21T04:06:51;33.92;;;12.35;;
82296;SDS011;71899;51.992;8.648;2023-11-21T04:09:17;39.65;;;13.60;;
82296;SDS011;71899;51.992;8.648;2023-11-21T04:11:42;39.00;;;12.50;;
82296;SDS011;71899;51.992;8.648;2023-11-21T04:14:10;36.70;;;12.30;;
82296;SDS011;71899;51.992;8.648;2023-11-21T04:16:35;39.88;;;14.02;;
82296;SDS011;71899;51.992;8.648;2023-11-21T04:19:01;28.08;;;11.85;;
82296;SDS011;71899;51.992;8.648;2023-11-21T04:21:26;33.15;;;11.10;;
82296;SDS011;71899;51.992;8.648;2023-11-21T04:23:51;32.60;;;12.57;;
82296;SDS011;71899;51.992;8.648;2023-11-21T04:26:17;33.17;;;12.40;;
82296;SDS011;71899;51.992;8.648;2023-11-21T04:28:42;33.92;;;11.95;;
82296;SDS011;71899;51.992;8.648;2023-11-21T04:31:07;40.85;;;13.57;;
82296;SDS011;71899;51.992;8.648;2023-11-21T04:33:33;42.90;;;13.00;;
82296;SDS011;71899;51.992;8.648;2023-11-21T04:35:58;35.85;;;12.02;;
82296;SDS011;71899;51.992;8.648;2023-11-21T04:38:23;44.92;;;12.75;;
82296;SDS011;71899;51.992;8.648;2023-11-21T04:40:49;55.35;;;16.88;;
82296;SDS011;71899;51.992;8.648;2023-11-21T04:43:14;61.65;;;17.60;;
82296;SDS011;71899;51.992;8.648;2023-11-21T04:45:40;55.22;;;16.90;;
82296;SDS011;71899;51.992;8.648;2023-11-21T04:48:06;56.10;;;15.73;;
82296;SDS011;71899;51.992;8.648;2023-11-21T04:50:33;47.20;;;16.85;;
82296;SDS011;71899;51.992;8.648;2023-11-21T04:52:59;62.25;;;16.30;;
82296;SDS011;71899;51.992;8.648;2023-11-21T04:55:24;44.05;;;14.50;;
82296;SDS011;71899;51.992;8.648;2023-11-21T04:57:53;45.42;;;15.77;;
82296;SDS011;71899;51.992;8.648;2023-11-21T05:00:18;50.65;;;15.73;;
82296;SDS011;71899;51.992;8.648;2023-11-21T05:02:45;58.20;;;16.98;;
82296;SDS011;71899;51.992;8.648;2023-11-21T05:05:10;76.07;;;18.50;;
82296;SDS011;71899;51.992;8.648;2023-11-21T05:07:35;77.47;;;22.25;;
82296;SDS011;71899;51.992;8.648;2023-11-21T05:10:01;72.45;;;21.00;;
82296;SDS011;71899;51.992;8.648;2023-11-21T05:12:30;75.95;;;22.77;;
82296;SDS011;71899;51.992;8.648;2023-11-21T05:15:02;85.18;;;22.98;;
82296;SDS011;71899;51.992;8.648;2023-11-21T05:17:33;88.28;;;23.08;;
82296;SDS011;71899;51.992;8.648;2023-11-21T05:19:59;96.38;;;24.48;;
82296;SDS011;71899;51.992;8.648;2023-11-21T05:22:28;81.13;;;26.85;;
82296;SDS011;71899;51.992;8.648;2023-11-21T05:24:54;79.75;;;23.77;;
82296;SDS011;71899;51.992;8.648;2023-11-21T05:27:19;85.97;;;26.35;;
82296;SDS011;71899;51.992;8.648;2023-11-21T05:29:44;77.90;;;23.20;;
82296;SDS011;71899;51.992;8.648;2023-11-21T05:32:10;70.65;;;23.88;;
82296;SDS011;71899;51.992;8.648;2023-11-21T05:34:35;71.95;;;24.08;;
82296;SDS011;71899;51.992;8.648;2023-11-21T05:37:01;78.25;;;25.58;;
82296;SDS011;71899;51.992;8.648;2023-11-21T05:39:26;69.10;;;24.30;;
82296;SDS011;71899;51.992;8.648;2023-11-21T05:41:53;78.47;;;24.73;;
82296;SDS011;71899;51.992;8.648;2023-11-21T05:44:18;82.53;;;26.33;;
82296;SDS011;71899;51.992;8.648;2023-11-21T05:46:44;99.43;;;30.27;;
82296;SDS011;71899;51.992;8.648;2023-11-21T05:49:10;94.15;;;29.55;;
82296;SDS011;71899;51.992;8.648;2023-11-21T05:51:36;82.65;;;27.85;;
82296;SDS011;71899;51.992;8.648;2023-11-21T05:54:02;77.40;;;26.60;;
82296;SDS011;71899;51.992;8.648;2023-11-21T05:56:27;79.70;;;28.67;;
82296;SDS011;71899;51.992;8.648;2023-11-21T05:58:53;93.30;;;29.70;;
82296;SDS011;71899;51.992;8.648;2023-11-21T06:01:18;84.30;;;28.98;;
82296;SDS011;71899;51.992;8.648;2023-11-21T06:03:44;80.78;;;29.10;;
82296;SDS011;71899;51.992;8.648;2023-11-21T06:06:10;87.10;;;29.73;;
82296;SDS011;71899;51.992;8.648;2023-11-21T06:08:36;97.78;;;29.52;;
82296;SDS011;71899;51.992;8.648;2023-11-21T06:11:01;96.32;;;30.10;;
82296;SDS011;71899;51.992;8.648;2023-11-21T06:13:27;100.55;;;31.55;;
82296;SDS011;71899;51.992;8.648;2023-11-21T06:15:52;93.00;;;28.88;;
82296;SDS011;71899;51.992;8.648;2023-11-21T06:18:18;90.07;;;30.25;;
82296;SDS011;71899;51.992;8.648;2023-11-21T06:20:46;91.80;;;29.50;;
82296;SDS011;71899;51.992;8.648;2023-11-21T06:23:12;99.78;;;31.35;;
82296;SDS011;71899;51.992;8.648;2023-11-21T06:25:37;96.03;;;30.65;;
82296;SDS011;71899;51.992;8.648;2023-11-21T06:28:04;83.80;;;30.73;;
82296;SDS011;71899;51.992;8.648;2023-11-21T06:30:30;95.68;;;29.52;;
82296;SDS011;71899;51.992;8.648;2023-11-21T06:32:55;95.75;;;28.25;;
82296;SDS011;71899;51.992;8.648;2023-11-21T06:35:21;85.70;;;28.77;;
82296;SDS011;71899;51.992;8.648;2023-11-21T06:37:47;87.80;;;29.02;;
82296;SDS011;71899;51.992;8.648;2023-11-21T06:40:13;103.97;;;28.73;;
82296;SDS011;71899;51.992;8.648;2023-11-21T06:42:40;90.75;;;30.45;;
82296;SDS011;71899;51.992;8.648;2023-11-21T06:45:06;90.15;;;30.17;;
82296;SDS011;71899;51.992;8.648;2023-11-21T06:47:33;99.30;;;29.35;;
82296;SDS011;71899;51.992;8.648;2023-11-21T06:49:58;87.32;;;28.33;;
82296;SDS011;71899;51.992;8.648;2023-11-21T06:52:24;82.93;;;27.77;;
82296;SDS011;71899;51.992;8.648;2023-11-21T06:54:49;83.47;;;28.85;;
82296;SDS011;71899;51.992;8.648;2023-11-21T06:57:15;97.22;;;27.30;;
82296;SDS011;71899;51.992;8.648;2023-11-21T06:59:40;77.50;;;24.40;;
82296;SDS011;71899;51.992;8.648;2023-11-21T07:02:06;81.70;;;24.35;;
82296;SDS011;71899;51.992;8.648;2023-11-21T07:04:32;74.88;;;23.92;;
82296;SDS011;71899;51.992;8.648;2023-11-21T07:06:58;73.70;;;24.70;;
82296;SDS011;71899;51.992;8.648;2023-11-21T07:09:23;63.10;;;22.70;;
82296;SDS011;71899;51.992;8.648;2023-11-21T07:11:51;70.57;;;23.15;;
82296;SDS011;71899;51.992;8.648;2023-11-21T07:14:16;75.20;;;26.15;;
82296;SDS011;71899;51.992;8.648;2023-11-21T07:16:44;62.90;;;23.45;;
82296;SDS011;71899;51.992;8.648;2023-11-21T07:19:10;75.43;;;26.73;;
82296;SDS011;71899;51.992;8.648;2023-11-21T07:21:37;66.00;;;24.92;;
82296;SDS011;71899;51.992;8.648;2023-11-21T07:24:04;66.70;;;24.30;;
82296;SDS011;71899;51.992;8.648;2023-11-21T07:26:31;71.10;;;23.40;;
82296;SDS011;71899;51.992;8.648;2023-11-21T07:28:58;74.88;;;24.33;;
82296;SDS011;71899;51.992;8.648;2023-11-21T07:31:24;73.10;;;24.80;;
82296;SDS011;71899;51.992;8.648;2023-11-21T07:33:50;82.22;;;23.35;;
82296;SDS011;71899;51.992;8.648;2023-11-21T07:36:16;83.07;;;23.30;;
82296;SDS011;71899;51.992;8.648;2023-11-21T07:38:48;95.03;;;23.73;;
82296;SDS011;71899;51.992;8.648;2023-11-21T07:41:14;84.93;;;24.08;;
82296;SDS011;71899;51.992;8.648;2023-11-21T07:43:41;90.30;;;24.10;;
82296;SDS011;71899;51.992;8.648;2023-11-21T07:46:06;92.75;;;24.58;;
82296;SDS011;71899;51.992;8.648;2023-11-21T07:48:33;84.95;;;25.13;;
82296;SDS011;71899;51.992;8.648;2023-11-21T07:50:59;91.28;;;25.55;;
82296;SDS011;71899;51.992;8.648;2023-11-21T07:53:26;85.57;;;23.38;;
82296;SDS011;71899;51.992;8.648;2023-11-21T07:55:54;95.75;;;23.88;;
82296;SDS011;71899;51.992;8.648;2023-11-21T07:58:20;92.95;;;25.80;;
82296;SDS011;71899;51.992;8.648;2023-11-21T08:00:45;91.88;;;24.83;;
82296;SDS011;71899;51.992;8.648;2023-11-21T08:03:11;95.32;;;25.45;;
82296;SDS011;71899;51.992;8.648;2023-11-21T08:05:38;93.15;;;27.55;;
82296;SDS011;71899;51.992;8.648;2023-11-21T08:08:04;91.65;;;24.90;;
82296;SDS011;71899;51.992;8.648;2023-11-21T08:10:31;100.40;;;25.75;;
82296;SDS011;71899;51.992;8.648;2023-11-21T08:20:44;81.70;;;23.33;;
82296;SDS011;71899;51.992;8.648;2023-11-21T08:23:13;95.13;;;22.63;;
82296;SDS011;71899;51.992;8.648;2023-11-21T08:25:44;83.93;;;22.63;;
82296;SDS011;71899;51.992;8.648;2023-11-21T08:28:10;94.10;;;24.88;;
82296;SDS011;71899;51.992;8.648;2023-11-21T08:30:35;85.78;;;22.52;;
82296;SDS011;71899;51.992;8.648;2023-11-21T08:33:01;76.68;;;21.58;;
82296;SDS011;71899;51.992;8.648;2023-11-21T08:35:28;91.03;;;22.52;;
82296;SDS011;71899;51.992;8.648;2023-11-21T08:37:53;94.88;;;24.92;;
82296;SDS011;71899;51.992;8.648;2023-11-21T08:40:20;85.18;;;20.92;;
82296;SDS011;71899;51.992;8.648;2023-11-21T08:42:46;84.43;;;21.65;;
82296;SDS011;71899;51.992;8.648;2023-11-21T08:45:11;90.05;;;21.38;;
82296;SDS011;71899;51.992;8.648;2023-11-21T08:47:38;85.07;;;22.52;;
82296;SDS011;71899;51.992;8.648;2023-11-21T08:50:05;90.75;;;21.08;;
82296;SDS011;71899;51.992;8.648;2023-11-21T08:52:33;99.00;;;23.85;;
82296;SDS011;71899;51.992;8.648;2023-11-21T08:54:59;92.70;;;20.63;;
82296;SDS011;71899;51.992;8.648;2023-11-21T08:57:31;71.93;;;19.75;;
82296;SDS011;71899;51.992;8.648;2023-11-21T08:59:56;84.95;;;20.63;;
82296;SDS011;71899;51.992;8.648;2023-11-21T09:05:14;67.60;;;18.33;;
82296;SDS011;71899;51.992;8.648;2023-11-21T09:07:41;101.90;;;20.65;;
82296;SDS011;71899;51.992;8.648;2023-11-21T09:10:07;73.70;;;19.98;;
82296;SDS011;71899;51.992;8.648;2023-11-21T09:12:34;65.55;;;18.25;;
82296;SDS011;71899;51.992;8.648;2023-11-21T09:15:07;65.80;;;17.15;;
82296;SDS011;71899;51.992;8.648;2023-11-21T09:17:35;53.00;;;16.27;;
82296;SDS011;71899;51.992;8.648;2023-11-21T09:20:00;55.22;;;15.88;;
82296;SDS011;71899;51.992;8.648;2023-11-21T09:22:26;55.60;;;15.93;;
82296;SDS011;71899;51.992;8.648;2023-11-21T09:24:52;53.58;;;15.10;;
82296;SDS011;71899;51.992;8.648;2023-11-21T09:27:17;50.03;;;14.75;;
82296;SDS011;71899;51.992;8.648;2023-11-21T09:29:43;42.05;;;13.77;;
82296;SDS011;71899;51.992;8.648;2023-11-21T09:32:08;35.95;;;14.45;;
82296;SDS011;71899;51.992;8.648;2023-11-21T09:34:37;43.95;;;14.52;;
82296;SDS011;71899;51.992;8.648;2023-11-21T09:37:04;54.03;;;14.15;;
82296;SDS011;71899;51.992;8.648;2023-11-21T09:39:31;39.97;;;13.15;;
82296;SDS011;71899;51.992;8.648;2023-11-21T09:42:04;36.03;;;14.10;;
82296;SDS011;71899;51.992;8.648;2023-11-21T09:44:40;37.25;;;12.95;;
82296;SDS011;71899;51.992;8.648;2023-11-21T09:47:14;34.38;;;14.77;;
82296;SDS011;71899;51.992;8.648;2023-11-21T09:49:41;38.65;;;14.80;;
82296;SDS011;71899;51.992;8.648;2023-11-21T09:52:11;41.50;;;14.45;;
82296;SDS011;71899;51.992;8.648;2023-11-21T09:54:47;38.00;;;13.80;;
82296;SDS011;71899;51.992;8.648;2023-11-21T09:57:15;35.92;;;13.52;;
82296;SDS011;71899;51.992;8.648;2023-11-21T09:59:41;35.55;;;12.73;;
82296;SDS011;71899;51.992;8.648;2023-11-21T10:02:07;39.10;;;12.13;;
82296;SDS011;71899;51.992;8.648;2023-11-21T10:04:38;30.38;;;10.90;;
82296;SDS011;71899;51.992;8.648;2023-11-21T10:07:03;30.67;;;9.73;;
82296;SDS011;71899;51.992;8.648;2023-11-21T10:09:34;25.35;;;9.70;;
82296;SDS011;71899;51.992;8.648;2023-11-21T10:12:01;21.17;;;8.50;;
82296;SDS011;71899;51.992;8.648;2023-11-21T10:14:28;21.58;;;7.80;;
82296;SDS011;71899;51.992;8.648;2023-11-21T10:16:55;17.45;;;7.10;;
82296;SDS011;71899;51.992;8.648;2023-11-21T10:19:21;17.27;;;6.25;;
82296;SDS011;71899;51.992;8.648;2023-11-21T10:21:48;20.48;;;7.75;;
82296;SDS011;71899;51.992;8.648;2023-11-21T10:24:14;17.63;;;6.68;;
82296;SDS011;71899;51.992;8.648;2023-11-21T10:26:40;20.55;;;7.97;;
82296;SDS011;71899;51.992;8.648;2023-11-21T10:29:06;18.27;;;8.50;;
82296;SDS011;71899;51.992;8.648;2023-11-21T10:31:32;19.35;;;8.32;;
82296;SDS011;71899;51.992;8.648;2023-11-21T10:34:12;17.50;;;8.55;;
82296;SDS011;71899;51.992;8.648;2023-11-21T10:36:38;12.27;;;7.03;;
82296;SDS011;71899;51.992;8.648;2023-11-21T10:39:04;15.45;;;6.95;;
82296;SDS011;71899;51.992;8.648;2023-11-21T10:41:29;16.45;;;8.18;;
82296;SDS011;71899;51.992;8.648;2023-11-21T10:43:55;21.13;;;9.93;;
82296;SDS011;71899;51.992;8.648;2023-11-21T10:46:22;16.08;;;7.80;;
82296;SDS011;71899;51.992;8.648;2023-11-21T10:48:53;13.75;;;7.25;;
82296;SDS011;71899;51.992;8.648;2023-11-21T10:51:22;14.80;;;7.50;;
82296;SDS011;71899;51.992;8.648;2023-11-21T10:53:49;11.52;;;6.30;;
82296;SDS011;71899;51.992;8.648;2023-11-21T10:56:16;13.98;;;7.32;;
82296;SDS011;71899;51.992;8.648;2023-11-21T10:58:45;13.57;;;6.70;;
82296;SDS011;71899;51.992;8.648;2023-11-21T11:01:10;13.45;;;6.18;;
82296;SDS011;71899;51.992;8.648;2023-11-21T11:03:39;10.95;;;5.97;;
82296;SDS011;71899;51.992;8.648;2023-11-21T11:06:06;10.60;;;6.47;;
82296;SDS011;71899;51.992;8.648;2023-11-21T11:08:39;8.27;;;5.63;;
82296;SDS011;71899;51.992;8.648;2023-11-21T11:11:05;9.18;;;5.78;;
82296;SDS011;71899;51.992;8.648;2023-11-21T11:13:31;9.68;;;5.68;;
82296;SDS011;71899;51.992;8.648;2023-11-21T11:16:00;7.53;;;5.70;;
82296;SDS011;71899;51.992;8.648;2023-11-21T11:21:15;10.13;;;6.15;;
82296;SDS011;71899;51.992;8.648;2023-11-21T11:23:59;10.52;;;5.93;;
82296;SDS011;71899;51.992;8.648;2023-11-21T11:35:10;12.98;;;7.88;;
82296;SDS011;71899;51.992;8.648;2023-11-21T11:37:54;14.43;;;8.23;;
82296;SDS011;71899;51.992;8.648;2023-11-21T11:40:20;17.67;;;8.90;;
82296;SDS011;71899;51.992;8.648;2023-11-21T11:42:56;12.00;;;8.48;;
82296;SDS011;71899;51.992;8.648;2023-11-21T11:45:23;14.00;;;8.30;;
82296;SDS011;71899;51.992;8.648;2023-11-21T11:47:56;16.20;;;9.40;;
82296;SDS011;71899;51.992;8.648;2023-11-21T11:50:22;15.27;;;8.65;;
82296;SDS011;71899;51.992;8.648;2023-11-21T11:52:48;13.38;;;9.27;;
82296;SDS011;71899;51.992;8.648;2023-11-21T11:55:17;12.98;;;8.30;;
82296;SDS011;71899;51.992;8.648;2023-11-21T11:57:44;16.73;;;8.93;;
82296;SDS011;71899;51.992;8.648;2023-11-21T12:00:17;15.35;;;9.18;;
82296;SDS011;71899;51.992;8.648;2023-11-21T12:02:53;14.25;;;8.32;;
82296;SDS011;71899;51.992;8.648;2023-11-21T12:05:20;14.82;;;8.18;;
82296;SDS011;71899;51.992;8.648;2023-11-21T12:07:50;13.95;;;9.15;;
82296;SDS011;71899;51.992;8.648;2023-11-21T12:10:20;16.38;;;8.20;;
82296;SDS011;71899;51.992;8.648;2023-11-21T12:12:50;15.75;;;9.65;;
82296;SDS011;71899;51.992;8.648;2023-11-21T12:15:17;13.68;;;7.80;;
82296;SDS011;71899;51.992;8.648;2023-11-21T12:17:44;13.18;;;8.80;;
82296;SDS011;71899;51.992;8.648;2023-11-21T12:20:10;15.65;;;10.18;;
82296;SDS011;71899;51.992;8.648;2023-11-21T12:22:41;13.77;;;8.88;;
82296;SDS011;71899;51.992;8.648;2023-11-21T12:25:08;13.90;;;8.45;;
82296;SDS011;71899;51.992;8.648;2023-11-21T12:27:33;15.98;;;10.40;;
82296;SDS011;71899;51.992;8.648;2023-11-21T12:29:58;19.33;;;11.18;;
82296;SDS011;71899;51.992;8.648;2023-11-21T12:32:24;15.43;;;9.77;;
82296;SDS011;71899;51.992;8.648;2023-11-21T12:34:50;14.77;;;9.25;;
82296;SDS011;71899;51.992;8.648;2023-11-21T12:37:16;17.80;;;9.10;;
82296;SDS011;71899;51.992;8.648;2023-11-21T12:39:42;16.67;;;8.85;;
82296;SDS011;71899;51.992;8.648;2023-11-21T12:42:07;16.35;;;8.48;;
82296;SDS011;71899;51.992;8.648;2023-11-21T12:44:32;13.13;;;8.27;;
82296;SDS011;71899;51.992;8.648;2023-11-21T12:46:58;13.68;;;7.93;;
82296;SDS011;71899;51.992;8.648;2023-11-21T12:49:24;14.82;;;8.13;;
82296;SDS011;71899;51.992;8.648;2023-11-21T12:51:50;12.80;;;7.72;;
82296;SDS011;71899;51.992;8.648;2023-11-21T12:54:15;11.32;;;6.97;;
82296;SDS011;71899;51.992;8.648;2023-11-21T12:56:44;12.98;;;6.45;;
82296;SDS011;71899;51.992;8.648;2023-11-21T12:59:12;10.65;;;6.43;;
82296;SDS011;71899;51.992;8.648;2023-11-21T13:01:41;9.20;;;6.35;;
82296;SDS011;71899;51.992;8.648;2023-11-21T13:04:07;8.70;;;5.85;;
82296;SDS011;71899;51.992;8.648;2023-11-21T13:06:36;10.90;;;6.65;;
82296;SDS011;71899;51.992;8.648;2023-11-21T13:09:06;14.05;;;6.13;;
82296;SDS011;71899;51.992;8.648;2023-11-21T13:11:36;11.57;;;6.78;;
82296;SDS011;71899;51.992;8.648;2023-11-21T13:14:01;9.63;;;5.93;;
82296;SDS011;71899;51.992;8.648;2023-11-21T13:16:28;10.57;;;5.60;;
82296;SDS011;71899;51.992;8.648;2023-11-21T13:18:55;10.23;;;5.95;;
82296;SDS011;71899;51.992;8.648;2023-11-21T13:21:20;8.45;;;5.43;;
82296;SDS011;71899;51.992;8.648;2023-11-21T13:23:47;9.25;;;5.13;;
82296;SDS011;71899;51.992;8.648;2023-11-21T13:26:13;11.93;;;6.15;;
82296;SDS011;71899;51.992;8.648;2023-11-21T13:28:40;8.02;;;5.20;;
82296;SDS011;71899;51.992;8.648;2023-11-21T13:31:10;10.70;;;6.07;;
82296;SDS011;71899;51.992;8.648;2023-11-21T13:33:46;6.82;;;4.65;;
82296;SDS011;71899;51.992;8.648;2023-11-21T13:36:19;8.05;;;5.30;;
82296;SDS011;71899;51.992;8.648;2023-11-21T13:38:49;6.03;;;4.25;;
82296;SDS011;71899;51.992;8.648;2023-11-21T13:41:14;6.57;;;3.78;;
82296;SDS011;71899;51.992;8.648;2023-11-21T13:43:40;5.57;;;4.25;;
82296;SDS011;71899;51.992;8.648;2023-11-21T13:46:09;6.43;;;4.63;;
82296;SDS011;71899;51.992;8.648;2023-11-21T13:48:46;9.40;;;5.03;;
82296;SDS011;71899;51.992;8.648;2023-11-21T13:51:21;7.00;;;3.33;;
82296;SDS011;71899;51.992;8.648;2023-11-21T13:54:13;6.07;;;4.05;;
82296;SDS011;71899;51.992;8.648;2023-11-21T13:56:38;7.57;;;4.32;;
82296;SDS011;71899;51.992;8.648;2023-11-21T13:59:05;6.07;;;4.10;;
82296;SDS011;71899;51.992;8.648;2023-11-21T14:04:20;5.72;;;3.70;;
82296;SDS011;71899;51.992;8.648;2023-11-21T14:07:00;8.10;;;4.45;;
82296;SDS011;71899;51.992;8.648;2023-11-21T14:09:39;6.50;;;4.68;;
82296;SDS011;71899;51.992;8.648;2023-11-21T14:12:08;6.35;;;4.68;;
82296;SDS011;71899;51.992;8.648;2023-11-21T14:14:35;7.97;;;4.82;;
82296;SDS011;71899;51.992;8.648;2023-11-21T14:17:00;8.52;;;5.28;;
82296;SDS011;71899;51.992;8.648;2023-11-21T14:19:31;9.73;;;5.45;;
82296;SDS011;71899;51.992;8.648;2023-11-21T14:21:57;9.02;;;5.68;;
82296;SDS011;71899;51.992;8.648;2023-11-21T14:24:23;12.32;;;5.55;;
82296;SDS011;71899;51.992;8.648;2023-11-21T14:26:49;9.27;;;6.03;;
82296;SDS011;71899;51.992;8.648;2023-11-21T14:29:16;11.15;;;6.65;;
82296;SDS011;71899;51.992;8.648;2023-11-21T14:31:45;8.70;;;5.78;;
82296;SDS011;71899;51.992;8.648;2023-11-21T14:34:11;11.82;;;5.40;;
82296;SDS011;71899;51.992;8.648;2023-11-21T14:36:37;12.30;;;6.07;;
82296;SDS011;71899;51.992;8.648;2023-11-21T14:39:04;8.50;;;5.10;;
82296;SDS011;71899;51.992;8.648;2023-11-21T14:41:36;9.43;;;6.30;;
82296;SDS011;71899;51.992;8.648;2023-11-21T14:44:03;11.23;;;6.18;;
82296;SDS011;71899;51.992;8.648;2023-11-21T14:46:29;10.05;;;6.35;;
82296;SDS011;71899;51.992;8.648;2023-11-21T14:48:54;10.05;;;6.85;;
82296;SDS011;71899;51.992;8.648;2023-11-21T14:51:38;8.65;;;5.55;;